Time;durP1;ratioP1;P1;durP2;ratioP2;P2;SDS_P1;SDS_P2;PMS_P1;PMS_P2;Temp;Humidity;BMP_temperature;BMP_pressure;BME280_temperature;BME280_humidity;BME280_pressure;Samples;Min_cycle;Max_cycle;Signal;HPM_P1;HPM_P2
2023/05/05 00:00:50;;;;;;;;;;;;;;;-144.99;76.01;52321.72;5062339;28;19932;-71
2023/05/05 00:03:17;;;;;;;;;;;;;;;-144.99;76.08;52301.34;5058148;28;19935;-70
2023/05/05 00:05:43;;;;;;;;;;;;;;;-144.99;76.09;52329.88;5061606;28;19982;-70
2023/05/05 00:08:10;;;;;;;;;;;;;;;-144.99;76.09;52325.81;5060458;28;19935;-70
2023/05/05 00:10:38;;;;;;;;;;;;;;;-144.99;76.24;52293.19;5057739;28;19964;-71
2023/05/05 00:13:05;;;;;;;;;;;;;;;-144.99;76.06;52301.34;5059653;28;19960;-70
2023/05/05 00:15:31;;;;;;;;;;;;;;;-144.99;76.31;52325.81;5053338;28;20516;-70
2023/05/05 00:17:58;;;;;;;;;;;;;;;-144.99;76.25;52301.34;5063493;28;20491;-71
2023/05/05 00:20:24;;;;;;;;;;;;;;;-144.99;76.06;52317.66;5066003;28;19960;-67
2023/05/05 00:22:51;;;;;;;;;;;;;;;-144.99;76.14;52297.25;5060541;28;19993;-67
2023/05/05 00:25:18;;;;;;;;;;;;;;;-144.99;76.22;52317.66;5057779;28;19928;-65
2023/05/05 00:27:45;;;;;;;;;;;;;;;-144.99;76.61;52297.25;5056931;28;19936;-66
2023/05/05 00:30:13;;;;;;;;;;;;;;;-144.99;76.40;52305.41;5059364;28;19981;-66
2023/05/05 00:32:39;;;;;;;;;;;;;;;-144.99;76.66;52342.09;5051549;28;20345;-65
2023/05/05 00:35:07;;;;;;;;;;;;;;;-144.99;76.68;52305.41;5054831;28;20332;-65
2023/05/05 00:37:34;;;;;;;;;;;;;;;-144.99;76.75;52309.50;5052379;28;19925;-66
2023/05/05 00:40:00;;;;;;;;;;;;;;;-144.99;76.55;52289.13;5056871;28;20736;-65
2023/05/05 00:42:27;;;;;;;;;;;;;;;-144.99;76.82;52327.84;5053857;28;19925;-66
2023/05/05 00:44:55;;;;;;;;;;;;;;;-144.99;77.00;52336.00;5057902;28;19928;-66
2023/05/05 00:47:21;;;;;;;;;;;;;;;-144.99;76.97;52338.03;5048188;28;19978;-67
2023/05/05 00:49:48;;;;;;;;;;;;;;;-144.99;77.07;52317.66;5055887;28;20171;-65
2023/05/05 00:52:14;;;;;;;;;;;;;;;-144.99;76.93;52293.19;5050068;28;19947;-67
2023/05/05 00:54:41;;;;;;;;;;;;;;;-144.99;77.00;52321.72;5064541;28;20343;-66
2023/05/05 00:57:07;;;;;;;;;;;;;;;-144.99;76.96;52333.94;5057820;28;19932;-66
2023/05/05 00:59:34;;;;;;;;;;;;;;;-144.99;77.19;52313.56;5055168;28;19928;-67
2023/05/05 01:02:02;;;;;;;;;;;;;;;-144.99;77.14;52289.13;5059093;28;19998;-66
2023/05/05 01:04:29;;;;;;;;;;;;;;;-144.99;77.16;52311.53;5048882;28;19952;-66
2023/05/05 01:07:02;;;;;;;;;;;;;;;-144.99;77.51;52329.88;5053570;28;19925;-66
2023/05/05 01:09:35;;;;;;;;;;;;;;;-144.99;77.33;52317.66;5061466;28;19932;-73
2023/05/05 01:12:08;;;;;;;;;;;;;;;-144.99;77.50;52317.66;5057373;28;19956;-73
2023/05/05 01:14:39;;;;;;;;;;;;;;;-144.99;77.42;52280.97;5056814;28;20002;-72
2023/05/05 01:17:12;;;;;;;;;;;;;;;-144.99;77.84;52305.41;5055676;28;20009;-71
2023/05/05 01:19:56;;;;;;;;;;;;;;;-144.99;78.04;52311.53;5055719;28;19924;-68
2023/05/05 01:22:25;;;;;;;;;;;;;;;-144.99;78.13;52297.25;5062404;28;20030;-68
2023/05/05 01:25:02;;;;;;;;;;;;;;;-144.99;78.19;52313.56;5048480;28;20350;-68
2023/05/05 01:27:48;;;;;;;;;;;;;;;-144.99;78.54;52321.72;5057713;28;19932;-67
2023/05/05 01:30:25;;;;;;;;;;;;;;;-144.99;78.39;52321.72;5062946;28;19983;-69
2023/05/05 01:32:56;;;;;;;;;;;;;;;-144.99;78.66;52313.56;5067976;28;19932;-68
2023/05/05 01:35:27;;;;;;;;;;;;;;;-144.99;78.86;52319.69;5056762;28;19979;-68
2023/05/05 01:37:57;;;;;;;;;;;;;;;-144.99;78.79;52305.41;5056780;28;19928;-69
2023/05/05 01:40:26;;;;;;;;;;;;;;;-144.99;79.06;52323.75;5068943;28;19933;-70
2023/05/05 01:42:54;;;;;;;;;;;;;;;-144.99;78.94;52321.72;5060573;28;19929;-68
2023/05/05 01:45:22;;;;;;;;;;;;;;;-144.99;79.12;52309.50;5061562;28;20026;-69
2023/05/05 01:47:49;;;;;;;;;;;;;;;-144.99;79.41;52309.50;5055039;28;20460;-68
2023/05/05 01:50:17;;;;;;;;;;;;;;;-144.99;79.32;52350.25;5053186;28;20296;-68
2023/05/05 01:52:45;;;;;;;;;;;;;;;-144.99;79.55;52297.25;5058537;28;19965;-68
2023/05/05 01:55:14;;;;;;;;;;;;;;;-144.99;79.47;52344.16;5064651;28;20377;-68
2023/05/05 01:57:42;;;;;;;;;;;;;;;-144.99;79.79;52299.31;5059247;28;19928;-69
2023/05/05 02:00:10;;;;;;;;;;;;;;;-144.99;80.10;52289.13;5056966;28;19924;-68
2023/05/05 02:02:37;;;;;;;;;;;;;;;-144.99;80.14;52317.66;5060763;28;19924;-68
2023/05/05 02:05:05;;;;;;;;;;;;;;;-144.99;80.25;52317.66;5056287;28;19986;-68
2023/05/05 02:07:33;;;;;;;;;;;;;;;-144.99;80.39;52325.81;5052714;28;19956;-69
2023/05/05 02:10:01;;;;;;;;;;;;;;;-144.99;80.73;52297.25;5061433;28;19978;-67
2023/05/05 02:12:28;;;;;;;;;;;;;;;-144.99;81.13;52305.41;5051669;28;20005;-67
2023/05/05 02:14:55;;;;;;;;;;;;;;;-144.99;80.94;52315.59;5060003;28;19933;-66
2023/05/05 02:17:22;;;;;;;;;;;;;;;-144.99;81.05;52325.81;5055375;28;20393;-67
2023/05/05 02:19:51;;;;;;;;;;;;;;;-144.99;81.19;52313.56;5051612;28;20378;-67
2023/05/05 02:22:17;;;;;;;;;;;;;;;-144.99;81.32;52321.72;5062084;28;20275;-66
2023/05/05 02:24:45;;;;;;;;;;;;;;;-144.99;81.36;52295.22;5056826;28;19948;-67
2023/05/05 02:27:16;;;;;;;;;;;;;;;-144.99;81.79;52301.34;5059692;28;20011;-68
2023/05/05 02:29:46;;;;;;;;;;;;;;;-144.99;81.97;52340.06;5056416;28;20016;-68
2023/05/05 02:32:16;;;;;;;;;;;;;;;-144.99;81.98;52309.50;5063826;28;19925;-72
2023/05/05 02:34:46;;;;;;;;;;;;;;;-144.99;82.40;52317.66;5058986;28;20394;-71
2023/05/05 02:37:14;;;;;;;;;;;;;;;-144.99;82.44;52307.47;5061617;28;20290;-71
2023/05/05 02:39:43;;;;;;;;;;;;;;;-144.99;82.37;52329.88;5060727;28;19975;-70
2023/05/05 02:42:14;;;;;;;;;;;;;;;-144.99;82.84;52305.41;5064470;28;20417;-67
2023/05/05 02:44:42;;;;;;;;;;;;;;;-144.99;82.65;52329.88;5057840;28;20436;-70
2023/05/05 02:47:09;;;;;;;;;;;;;;;-144.99;82.90;52313.56;5061951;28;20050;-71
2023/05/05 02:49:35;;;;;;;;;;;;;;;-144.99;83.50;52366.56;5056187;28;19947;-71
2023/05/05 02:52:02;;;;;;;;;;;;;;;-144.99;83.53;52305.41;5056126;28;19925;-71
2023/05/05 02:54:29;;;;;;;;;;;;;;;-144.99;83.56;52333.94;5063967;28;20697;-70
2023/05/05 02:56:57;;;;;;;;;;;;;;;-144.99;83.87;52309.50;5056957;28;19986;-70
2023/05/05 02:59:30;;;;;;;;;;;;;;;-144.99;83.89;52319.69;5053127;28;19975;-69
2023/05/05 03:02:03;;;;;;;;;;;;;;;-144.99;84.29;52317.66;5060471;28;19925;-69
2023/05/05 03:04:35;;;;;;;;;;;;;;;-144.99;84.48;52333.94;5060697;28;19939;-70
2023/05/05 03:07:07;;;;;;;;;;;;;;;-144.99;84.53;52321.72;5077846;28;19960;-70
2023/05/05 03:09:37;;;;;;;;;;;;;;;-144.99;84.93;52311.53;5083796;28;19921;-69
2023/05/05 03:12:05;;;;;;;;;;;;;;;-144.99;85.14;52307.47;5089594;28;19929;-70
2023/05/05 03:14:36;;;;;;;;;;;;;;;-144.99;85.29;52333.94;5072215;28;19940;-72
2023/05/05 03:17:03;;;;;;;;;;;;;;;-144.99;85.24;52260.56;5077491;28;19912;-73
2023/05/05 03:19:30;;;;;;;;;;;;;;;-144.99;85.51;52305.41;5069580;28;19928;-73
2023/05/05 03:21:57;;;;;;;;;;;;;;;-144.99;86.23;52317.66;5073844;28;19924;-71
2023/05/05 03:24:23;;;;;;;;;;;;;;;-144.99;85.97;52354.34;5062212;28;19983;-63
2023/05/05 03:26:50;;;;;;;;;;;;;;;-144.99;86.20;52299.31;5056766;28;19974;-64
2023/05/05 03:29:17;;;;;;;;;;;;;;;-144.99;86.27;52321.72;5066091;28;20009;-63
2023/05/05 03:31:44;;;;;;;;;;;;;;;-144.99;86.50;52297.25;5068515;28;19928;-63
2023/05/05 03:34:11;;;;;;;;;;;;;;;-144.99;86.68;52285.03;5061833;28;20458;-64
2023/05/05 03:36:38;;;;;;;;;;;;;;;-144.99;86.96;52325.81;5063658;28;20301;-63
2023/05/05 03:39:04;;;;;;;;;;;;;;;-144.99;86.88;52299.31;5055358;28;20002;-65
2023/05/05 03:41:31;;;;;;;;;;;;;;;-144.99;87.14;52254.47;5058325;28;19925;-64
2023/05/05 03:43:57;;;;;;;;;;;;;;;-144.99;87.21;52289.13;5053242;28;19971;-66
2023/05/05 03:46:26;;;;;;;;;;;;;;;-144.99;87.19;52301.34;5051116;28;20453;-65
2023/05/05 03:48:55;;;;;;;;;;;;;;;-144.99;87.94;52317.66;5050648;28;19982;-64
2023/05/05 03:51:22;;;;;;;;;;;;;;;-144.99;88.12;52329.88;5059268;28;19928;-62
2023/05/05 03:53:48;;;;;;;;;;;;;;;-144.99;88.36;52301.34;5070500;28;19924;-63
2023/05/05 03:56:15;;;;;;;;;;;;;;;-144.99;88.52;52350.25;5071147;28;20377;-64
2023/05/05 03:58:42;;;;;;;;;;;;;;;-144.99;88.99;52327.84;5050086;28;19932;-63
2023/05/05 04:01:08;;;;;;;;;;;;;;;-144.99;88.82;52321.72;5056976;22;19964;-74
2023/05/05 04:03:35;;;;;;;;;;;;;;;-144.99;89.31;52301.34;5027189;28;20462;-74
2023/05/05 04:06:02;;;;;;;;;;;;;;;-144.99;89.25;52313.56;5022027;28;20365;-74
2023/05/05 04:08:29;;;;;;;;;;;;;;;-144.99;89.40;52305.41;5013353;28;20467;-75
2023/05/05 04:10:56;;;;;;;;;;;;;;;-144.99;89.76;52283.00;5007899;28;19926;-75
2023/05/05 04:13:22;;;;;;;;;;;;;;;-144.99;90.56;52285.03;5011366;28;19941;-73
2023/05/05 04:15:49;;;;;;;;;;;;;;;-144.99;90.74;52264.66;5012645;28;20028;-73
2023/05/05 04:18:16;;;;;;;;;;;;;;;-144.99;90.13;52325.81;5004365;28;19926;-73
2023/05/05 04:20:43;;;;;;;;;;;;;;;-144.99;91.07;52285.03;5013747;28;19925;-73
2023/05/05 04:23:13;;;;;;;;;;;;;;;-144.99;90.74;52303.38;5015401;28;19925;-73
2023/05/05 04:25:40;;;;;;;;;;;;;;;-144.99;90.40;52293.19;5015839;28;19990;-71
2023/05/05 04:28:06;;;;;;;;;;;;;;;-144.99;90.18;52280.97;5014228;28;20401;-69
2023/05/05 04:30:33;;;;;;;;;;;;;;;-144.99;90.61;52285.03;5015628;28;19992;-69
2023/05/05 04:33:00;;;;;;;;;;;;;;;-144.99;90.96;52338.03;5013424;28;19929;-70
2023/05/05 04:35:26;;;;;;;;;;;;;;;-144.99;90.20;52309.50;5021106;28;20030;-70
2023/05/05 04:37:53;;;;;;;;;;;;;;;-144.99;90.65;52329.88;5021340;28;19953;-70
2023/05/05 04:40:21;;;;;;;;;;;;;;;-144.99;90.63;52268.72;5008847;28;19935;-69
2023/05/05 04:42:48;;;;;;;;;;;;;;;-144.99;90.94;52323.75;5009184;28;20003;-71
2023/05/05 04:45:14;;;;;;;;;;;;;;;-144.99;90.91;52309.50;5017711;28;19987;-70
2023/05/05 04:47:41;;;;;;;;;;;;;;;-144.99;91.21;52297.25;5011351;28;19926;-69
2023/05/05 04:50:08;;;;;;;;;;;;;;;-144.99;90.76;52280.97;5015349;28;19929;-69
2023/05/05 04:52:34;;;;;;;;;;;;;;;-144.99;90.90;52283.00;5014246;28;19929;-70
2023/05/05 04:55:01;;;;;;;;;;;;;;;-144.99;90.30;52285.03;5019231;28;20029;-70
2023/05/05 04:57:29;;;;;;;;;;;;;;;-144.99;90.07;52272.81;5016323;28;20398;-60
2023/05/05 04:59:55;;;;;;;;;;;;;;;-144.99;90.67;52289.13;5016589;28;19979;-62
2023/05/05 05:02:22;;;;;;;;;;;;;;;-144.99;89.50;52264.66;5006440;28;20008;-69
2023/05/05 05:04:48;;;;;;;;;;;;;;;-144.99;89.04;52297.25;5021020;28;20309;-69
2023/05/05 05:07:15;;;;;;;;;;;;;;;-144.99;88.67;52252.44;5018751;28;19925;-69
2023/05/05 05:09:42;;;;;;;;;;;;;;;-144.99;89.16;52258.53;5018410;28;20040;-70
2023/05/05 05:12:08;;;;;;;;;;;;;;;-144.99;89.42;52301.34;5022610;28;20035;-69
2023/05/05 05:14:37;;;;;;;;;;;;;;;-144.99;89.55;52270.78;5012293;28;19937;-67
2023/05/05 05:17:04;;;;;;;;;;;;;;;-144.99;89.55;52256.50;4319247;28;10000661;-68
2023/05/05 05:19:31;;;;;;;;;;;;;;;-144.99;89.69;52287.06;5009502;28;19956;-67
2023/05/05 05:21:57;;;;;;;;;;;;;;;-144.99;89.48;52254.47;5011415;28;20011;-67
2023/05/05 05:24:25;;;;;;;;;;;;;;;-144.99;89.98;52285.03;5009820;28;19925;-67
2023/05/05 05:26:51;;;;;;;;;;;;;;;-144.99;89.88;52272.81;5009543;28;20134;-68
2023/05/05 05:29:19;;;;;;;;;;;;;;;-144.99;89.80;52280.97;5018978;28;19944;-68
2023/05/05 05:31:46;;;;;;;;;;;;;;;-144.99;90.26;52289.13;5019365;28;20020;-68
2023/05/05 05:34:13;;;;;;;;;;;;;;;-144.99;90.56;52317.66;5020841;28;20060;-68
2023/05/05 05:36:39;;;;;;;;;;;;;;;-144.99;90.51;52276.88;5005843;28;19987;-68
2023/05/05 05:39:06;;;;;;;;;;;;;;;-144.99;90.39;52313.56;5016368;28;19995;-67
2023/05/05 05:41:33;;;;;;;;;;;;;;;-144.99;90.53;52317.66;5014906;28;19929;-67
2023/05/05 05:43:59;;;;;;;;;;;;;;;-144.99;90.34;52285.03;5018840;28;20402;-69
2023/05/05 05:46:26;;;;;;;;;;;;;;;-144.99;90.09;52293.19;5011110;28;20039;-68
2023/05/05 05:48:54;;;;;;;;;;;;;;;-144.99;89.76;52264.66;5015433;28;19979;-69
2023/05/05 05:51:20;;;;;;;;;;;;;;;-144.99;89.30;52276.88;5016134;28;19936;-67
2023/05/05 05:53:47;;;;;;;;;;;;;;;-144.99;88.48;52301.34;5011130;28;19972;-67
2023/05/05 05:56:13;;;;;;;;;;;;;;;-144.99;88.01;52276.88;5018626;28;19933;-68
2023/05/05 05:58:41;;;;;;;;;;;;;;;-144.99;87.62;52240.19;5013985;28;20317;-69
2023/05/05 06:01:07;;;;;;;;;;;;;;;-144.99;87.54;52291.16;5007181;28;19926;-68
2023/05/05 06:03:34;;;;;;;;;;;;;;;-144.99;86.73;52232.03;5007734;28;19925;-68
2023/05/05 06:06:02;;;;;;;;;;;;;;;-144.99;86.48;52240.19;5016395;28;19929;-68
2023/05/05 06:08:28;;;;;;;;;;;;;;;-144.99;85.74;52250.38;5000244;28;19936;-68
2023/05/05 06:10:55;;;;;;;;;;;;;;;-144.99;85.28;52285.03;5011815;28;20023;-68
2023/05/05 06:13:21;;;;;;;;;;;;;;;-144.99;84.92;52260.56;5015557;28;20374;-68
2023/05/05 06:15:48;;;;;;;;;;;;;;;-144.99;84.60;52242.22;5007771;28;20002;-68
2023/05/05 06:18:14;;;;;;;;;;;;;;;-144.99;83.96;52219.81;5004611;28;20346;-68
2023/05/05 06:20:42;;;;;;;;;;;;;;;-144.99;84.19;52260.56;5021599;28;20016;-68
2023/05/05 06:23:10;;;;;;;;;;;;;;;-144.99;83.97;52260.56;5008087;28;20357;-68
2023/05/05 06:25:36;;;;;;;;;;;;;;;-144.99;83.94;52285.03;5023118;28;19968;-68
2023/05/05 06:28:04;;;;;;;;;;;;;;;-144.99;83.75;52287.06;5011599;28;19960;-68
2023/05/05 06:30:31;;;;;;;;;;;;;;;-144.99;83.60;52232.03;5012707;28;19936;-68
2023/05/05 06:32:57;;;;;;;;;;;;;;;-144.99;83.21;52268.72;5012720;28;20320;-69
2023/05/05 06:35:23;;;;;;;;;;;;;;;-144.99;82.58;52266.69;5016785;28;19937;-69
2023/05/05 06:37:50;;;;;;;;;;;;;;;-144.99;82.45;52266.69;5002333;28;20003;-68
2023/05/05 06:40:18;;;;;;;;;;;;;;;-144.99;82.60;52260.56;5006301;28;19998;-69
2023/05/05 06:42:44;;;;;;;;;;;;;;;-144.99;82.19;52276.88;5015601;28;20521;-69
2023/05/05 06:45:11;;;;;;;;;;;;;;;-144.99;82.11;52291.16;5007600;28;19969;-69
2023/05/05 06:47:39;;;;;;;;;;;;;;;-144.99;81.75;52285.03;5011047;28;19926;-69
2023/05/05 06:50:07;;;;;;;;;;;;;;;-144.99;81.54;52256.50;5012143;28;20344;-69
2023/05/05 06:52:33;;;;;;;;;;;;;;;-144.99;80.73;52217.78;5018098;28;19926;-69
2023/05/05 06:55:00;;;;;;;;;;;;;;;-144.99;80.98;52242.22;5021878;28;20367;-69
2023/05/05 06:57:28;;;;;;;;;;;;;;;-144.99;80.85;52264.66;5017464;28;20426;-69
2023/05/05 06:59:54;;;;;;;;;;;;;;;-144.99;81.23;52232.03;4670003;28;9999797;-69
2023/05/05 07:02:21;;;;;;;;;;;;;;;-144.99;80.89;52260.56;5007115;28;19992;-69
2023/05/05 07:04:47;;;;;;;;;;;;;;;-144.99;80.76;52256.50;5016356;28;20452;-68
2023/05/05 07:07:14;;;;;;;;;;;;;;;-144.99;80.56;52205.53;5014160;28;19929;-69
2023/05/05 07:09:41;;;;;;;;;;;;;;;-144.99;80.99;52244.28;5006242;28;19988;-69
2023/05/05 07:12:08;;;;;;;;;;;;;;;-144.99;80.94;52236.13;5017312;28;20196;-69
2023/05/05 07:14:36;;;;;;;;;;;;;;;-144.99;81.32;52238.16;5016926;28;20015;-69
2023/05/05 07:17:02;;;;;;;;;;;;;;;-144.99;81.30;52227.97;5008324;28;19929;-69
2023/05/05 07:19:28;;;;;;;;;;;;;;;-144.99;80.87;52219.81;5008940;28;20322;-69
2023/05/05 07:21:55;;;;;;;;;;;;;;;-144.99;80.57;52248.34;5005407;28;20031;-69
2023/05/05 07:24:21;;;;;;;;;;;;;;;-144.99;80.31;52227.97;5014422;28;19930;-69
2023/05/05 07:26:48;;;;;;;;;;;;;;;-144.99;80.27;52232.03;5009267;28;19933;-69
2023/05/05 07:29:15;;;;;;;;;;;;;;;-144.99;80.36;52223.88;5011142;28;20373;-68
2023/05/05 07:31:42;;;;;;;;;;;;;;;-144.99;80.29;52227.97;5007008;28;19983;-68
2023/05/05 07:34:09;;;;;;;;;;;;;;;-144.99;80.02;52232.03;5008429;28;20661;-68
2023/05/05 07:36:36;;;;;;;;;;;;;;;-144.99;79.56;52203.50;5008316;28;19929;-68
2023/05/05 07:39:02;;;;;;;;;;;;;;;-144.99;79.71;52236.13;5016138;28;19925;-69
2023/05/05 07:41:29;;;;;;;;;;;;;;;-144.99;79.58;52230.00;5005805;28;20000;-69
2023/05/05 07:43:55;;;;;;;;;;;;;;;-144.99;79.28;52219.81;5008676;28;19934;-69
2023/05/05 07:46:22;;;;;;;;;;;;;;;-144.99;78.61;52238.16;5018482;28;19929;-69
2023/05/05 07:48:49;;;;;;;;;;;;;;;-144.99;78.67;52236.13;5016952;28;19979;-69
2023/05/05 07:51:16;;;;;;;;;;;;;;;-144.99;78.71;52254.47;5010892;28;20030;-68
2023/05/05 07:53:42;;;;;;;;;;;;;;;-144.99;78.51;52219.81;5014320;28;19936;-68
2023/05/05 07:56:09;;;;;;;;;;;;;;;-144.99;78.41;52260.56;5009961;28;20007;-70
2023/05/05 07:58:35;;;;;;;;;;;;;;;-144.99;78.04;52203.50;5009481;28;19969;-70
2023/05/05 08:01:05;;;;;;;;;;;;;;;-144.99;78.11;52179.06;5014092;28;20000;-69
2023/05/05 08:03:31;;;;;;;;;;;;;;;-144.99;78.13;52215.75;5008554;28;20343;-69
2023/05/05 08:06:05;;;;;;;;;;;;;;;-144.99;77.87;52205.53;5011828;28;19936;-70
2023/05/05 08:08:32;;;;;;;;;;;;;;;-144.99;78.06;52201.47;5012565;28;19929;-70
2023/05/05 08:10:59;;;;;;;;;;;;;;;-144.99;77.40;52211.66;5012516;28;19934;-69
2023/05/05 08:13:26;;;;;;;;;;;;;;;-144.99;77.20;52217.78;5005153;28;19977;-69
2023/05/05 08:15:52;;;;;;;;;;;;;;;-144.99;76.59;52207.59;5019183;28;20446;-69
2023/05/05 08:18:19;;;;;;;;;;;;;;;-144.99;76.36;52179.06;5015277;28;20243;-69
2023/05/05 08:20:46;;;;;;;;;;;;;;;-144.99;75.97;52199.44;5019896;28;20187;-69
2023/05/05 08:23:14;;;;;;;;;;;;;;;-144.99;75.62;52227.97;5009721;28;19929;-69
2023/05/05 08:25:40;;;;;;;;;;;;;;;-144.99;75.08;52183.13;5010839;28;19952;-69
2023/05/05 08:28:07;;;;;;;;;;;;;;;-144.99;74.88;52187.19;5017309;28;19929;-70
2023/05/05 08:30:33;;;;;;;;;;;;;;;-144.99;74.75;52203.50;5017457;28;19929;-69
2023/05/05 08:33:00;;;;;;;;;;;;;;;-144.99;74.78;52183.13;5009374;28;19929;-70
2023/05/05 08:35:29;;;;;;;;;;;;;;;-144.99;74.55;52213.69;5005209;28;19937;-69
2023/05/05 08:37:55;;;;;;;;;;;;;;;-144.99;74.64;52191.28;5009760;28;19925;-69
2023/05/05 08:40:28;;;;;;;;;;;;;;;-144.99;74.60;52207.59;5008951;28;19995;-71
2023/05/05 08:42:55;;;;;;;;;;;;;;;-144.99;74.67;52191.28;5010098;28;19991;-71
2023/05/05 08:45:21;;;;;;;;;;;;;;;-144.99;74.67;52223.88;5017027;28;19935;-70
2023/05/05 08:47:48;;;;;;;;;;;;;;;-144.99;73.86;52166.81;4997474;28;19952;-71
2023/05/05 08:50:17;;;;;;;;;;;;;;;-144.99;73.44;52181.09;5008107;28;19968;-70
2023/05/05 08:52:45;;;;;;;;;;;;;;;-144.99;72.89;52142.38;4994644;28;20025;-69
2023/05/05 08:55:17;;;;;;;;;;;;;;;-144.99;72.77;52207.59;5006596;28;20335;-71
2023/05/05 08:57:48;;;;;;;;;;;;;;;-144.99;72.71;52158.66;5007262;28;19936;-71
2023/05/05 09:00:18;;;;;;;;;;;;;;;-144.99;72.93;52183.13;5008941;28;20355;-71
2023/05/05 09:02:44;;;;;;;;;;;;;;;-144.99;72.87;52174.97;5004289;28;19937;-70
2023/05/05 09:05:11;;;;;;;;;;;;;;;-144.99;72.56;52183.13;5020007;28;19925;-70
2023/05/05 09:07:40;;;;;;;;;;;;;;;-144.99;72.65;52215.75;5013809;28;20343;-70
2023/05/05 09:10:08;;;;;;;;;;;;;;;-144.99;72.52;52166.81;5007532;28;19929;-71
2023/05/05 09:12:35;;;;;;;;;;;;;;;-144.99;72.68;52191.28;5009067;28;20034;-71
2023/05/05 09:15:03;;;;;;;;;;;;;;;-144.99;72.97;52223.88;5013629;28;20370;-72
2023/05/05 09:17:30;;;;;;;;;;;;;;;-144.99;73.23;52215.75;5012347;28;20472;-72
2023/05/05 09:20:01;;;;;;;;;;;;;;;-144.99;73.54;52211.66;5018924;28;19929;-71
2023/05/05 09:22:34;;;;;;;;;;;;;;;-144.99;73.73;52187.19;5009780;28;20406;-71
2023/05/05 09:25:00;;;;;;;;;;;;;;;-144.99;73.87;52219.81;5005197;28;19926;-71
2023/05/05 09:27:27;;;;;;;;;;;;;;;-144.99;73.25;52211.66;5016606;28;19929;-71
2023/05/05 09:29:55;;;;;;;;;;;;;;;-144.99;73.00;52179.06;5010827;28;19935;-71
2023/05/05 09:32:23;;;;;;;;;;;;;;;-144.99;73.47;52197.41;5006768;28;20362;-71
2023/05/05 09:34:59;;;;;;;;;;;;;;;-144.99;73.63;52191.28;5008622;28;20024;-70
2023/05/05 09:37:29;;;;;;;;;;;;;;;-144.99;73.47;52213.69;5006102;28;20440;-71
2023/05/05 09:39:56;;;;;;;;;;;;;;;-144.99;73.43;52236.13;5012625;28;19929;-71
2023/05/05 09:42:22;;;;;;;;;;;;;;;-144.99;73.70;52215.75;5015800;28;19930;-71
2023/05/05 09:44:50;;;;;;;;;;;;;;;-144.99;73.28;52232.03;5005982;28;20389;-70
2023/05/05 09:47:17;;;;;;;;;;;;;;;-144.99;73.93;52252.44;5012527;28;19929;-70
2023/05/05 09:49:45;;;;;;;;;;;;;;;-144.99;74.04;52232.03;5014161;28;20015;-71
2023/05/05 09:52:12;;;;;;;;;;;;;;;-144.99;74.69;52227.97;5014850;28;19925;-70
2023/05/05 09:54:39;;;;;;;;;;;;;;;-144.99;74.76;52215.75;5005429;28;20012;-71
2023/05/05 09:57:06;;;;;;;;;;;;;;;-144.99;74.67;52203.50;5014099;28;20401;-70
2023/05/05 09:59:32;;;;;;;;;;;;;;;-144.99;74.79;52236.13;5012990;28;19933;-71
2023/05/05 10:02:10;;;;;;;;;;;;;;;-144.99;74.93;52207.59;5019639;28;19929;-70
2023/05/05 10:04:37;;;;;;;;;;;;;;;-144.99;74.89;52223.88;5010660;28;19926;-70
2023/05/05 10:07:05;;;;;;;;;;;;;;;-144.99;75.18;52219.81;5022699;28;19933;-70
2023/05/05 10:09:31;;;;;;;;;;;;;;;-144.99;75.18;52215.75;5016494;28;19936;-70
2023/05/05 10:11:59;;;;;;;;;;;;;;;-144.99;75.20;52203.50;5016527;28;19930;-70
2023/05/05 10:14:27;;;;;;;;;;;;;;;-144.99;74.90;52244.28;5015320;28;19929;-70
2023/05/05 10:16:54;;;;;;;;;;;;;;;-144.99;75.13;52199.44;5017693;28;19975;-69
2023/05/05 10:19:21;;;;;;;;;;;;;;;-144.99;74.82;52236.13;5018342;28;19925;-70
2023/05/05 10:21:50;;;;;;;;;;;;;;;-144.99;74.64;52211.66;5020889;28;19929;-70
2023/05/05 10:24:21;;;;;;;;;;;;;;;-144.99;74.46;52223.88;5015291;28;19991;-69
2023/05/05 10:26:49;;;;;;;;;;;;;;;-144.99;74.12;52238.16;5012173;28;20290;-70
2023/05/05 10:29:21;;;;;;;;;;;;;;;-144.99;74.37;52215.75;5021788;28;19925;-70
2023/05/05 10:31:49;;;;;;;;;;;;;;;-144.99;73.89;52227.97;5016105;28;19949;-71
2023/05/05 10:34:20;;;;;;;;;;;;;;;-144.99;73.96;52232.03;5006689;28;20008;-70
2023/05/05 10:36:48;;;;;;;;;;;;;;;-144.99;74.14;52221.84;5005638;28;20322;-71
2023/05/05 10:39:15;;;;;;;;;;;;;;;-144.99;73.77;52195.34;5019119;28;19979;-71
2023/05/05 10:41:43;;;;;;;;;;;;;;;-144.99;73.87;52250.38;5009737;28;19933;-71
2023/05/05 10:44:10;;;;;;;;;;;;;;;-144.99;73.48;52191.28;5010779;28;19941;-70
2023/05/05 10:46:37;;;;;;;;;;;;;;;-144.99;73.79;52203.50;5009332;28;20305;-71
2023/05/05 10:49:08;;;;;;;;;;;;;;;-144.99;73.56;52179.06;5019435;28;19983;-71
2023/05/05 10:51:40;;;;;;;;;;;;;;;-144.99;73.37;52207.59;5009867;28;19973;-71
2023/05/05 10:54:10;;;;;;;;;;;;;;;-144.99;73.45;52240.19;5010027;28;19926;-70
2023/05/05 10:56:40;;;;;;;;;;;;;;;-144.99;72.92;52223.88;5012097;28;20023;-70
2023/05/05 11:02:00;;;;;;;;;;;;;;;-144.99;71.84;52174.97;5126753;27;20251;-70
2023/05/05 11:04:27;;;;;;;;;;;;;;;-144.99;71.94;52172.94;5123909;27;19931;-70
2023/05/05 11:07:12;;;;;;;;;;;;;;;-144.99;71.32;52179.06;5119930;27;20508;-70
2023/05/05 11:09:54;;;;;;;;;;;;;;;-144.99;71.44;52195.34;5115834;27;19927;-70
2023/05/05 11:12:21;;;;;;;;;;;;;;;-144.99;71.33;52244.28;5103422;28;19939;-70
2023/05/05 11:14:47;;;;;;;;;;;;;;;-144.99;71.78;52203.50;5106500;28;20084;-70
2023/05/05 11:17:28;;;;;;;;;;;;;;;-144.99;71.99;52215.75;5107277;27;19981;-70
2023/05/05 11:19:56;;;;;;;;;;;;;;;-144.99;71.70;52227.97;5114466;27;20040;-70
2023/05/05 11:22:23;;;;;;;;;;;;;;;-144.99;71.64;52215.75;5104638;27;20381;-71
2023/05/05 11:24:49;;;;;;;;;;;;;;;-144.99;71.67;52225.94;5106160;27;19928;-70
2023/05/05 11:27:16;;;;;;;;;;;;;;;-144.99;71.84;52179.06;5105194;27;19973;-70
2023/05/05 11:30:02;;;;;;;;;;;;;;;-144.99;71.60;52126.06;5106707;28;19924;-70
2023/05/05 11:32:29;;;;;;;;;;;;;;;-144.99;71.40;52160.72;5105004;28;19932;-70
2023/05/05 11:34:57;;;;;;;;;;;;;;;-144.99;71.30;52191.28;5108581;27;19928;-70
2023/05/05 11:37:24;;;;;;;;;;;;;;;-144.99;71.04;52201.47;5103070;27;19928;-71
2023/05/05 11:39:54;;;;;;;;;;;;;;;-144.99;71.42;52197.41;5104880;28;19928;-71
2023/05/05 11:42:24;;;;;;;;;;;;;;;-144.99;71.57;52203.50;5111790;27;20159;-71
2023/05/05 11:44:51;;;;;;;;;;;;;;;-144.99;71.16;52217.78;5110341;27;19960;-71
2023/05/05 11:47:28;;;;;;;;;;;;;;;-144.99;71.57;52179.06;5106453;27;20292;-70
2023/05/05 11:49:55;;;;;;;;;;;;;;;-144.99;71.45;52207.59;5110489;27;20230;-72
2023/05/05 11:52:23;;;;;;;;;;;;;;;-144.99;71.46;52219.81;5103692;28;19989;-69
2023/05/05 11:54:50;;;;;;;;;;;;;;;-144.99;71.54;52195.34;5106032;28;19967;-70
2023/05/05 11:57:19;;;;;;;;;;;;;;;-144.99;71.49;52187.19;5113715;27;20559;-71
2023/05/05 11:59:52;;;;;;;;;;;;;;;-144.99;71.68;52207.59;5105497;27;20289;-70
2023/05/05 12:02:19;;;;;;;;;;;;;;;-144.99;71.60;52191.28;5107075;28;19967;-71
2023/05/05 12:04:46;;;;;;;;;;;;;;;-144.99;71.51;52207.59;5101964;28;19985;-70
2023/05/05 12:07:16;;;;;;;;;;;;;;;-144.99;71.78;52183.13;5104301;27;19975;-70
2023/05/05 12:09:45;;;;;;;;;;;;;;;-144.99;71.62;52154.59;5110313;27;20001;-70
2023/05/05 12:12:11;;;;;;;;;;;;;;;-144.99;71.79;52199.44;5093905;28;19974;-70
2023/05/05 12:14:44;;;;;;;;;;;;;;;-144.99;71.56;52183.13;5088314;28;20438;-70
2023/05/05 12:17:11;;;;;;;;;;;;;;;-144.99;71.20;52201.47;5098419;28;20392;-70
2023/05/05 12:19:44;;;;;;;;;;;;;;;-144.99;70.98;52179.06;5096098;28;19977;-70
2023/05/05 12:22:17;;;;;;;;;;;;;;;-144.99;70.89;52179.06;5093826;28;20091;-70
2023/05/05 12:24:45;;;;;;;;;;;;;;;-144.99;70.77;52187.19;5098738;28;20437;-70
2023/05/05 12:27:12;;;;;;;;;;;;;;;-144.99;70.15;52174.97;5096967;28;20345;-70
2023/05/05 12:29:38;;;;;;;;;;;;;;;-144.99;70.52;52191.28;5089211;28;19932;-70
2023/05/05 12:32:05;;;;;;;;;;;;;;;-144.99;69.98;52142.38;5095854;28;19924;-70